Timeline UpdatesTrip UpdatesNews PostsPvt PostsTravel TipsAdmin PostsConv PostsFollowed PostsChat RequestsBlog PostsPNR Posts

Disclaimer
Search
 
 
Sun Apr 20, 2014 11:19:30 ISTHomeTrainsΣChainsAtlasPNRForumGalleryNewsFAQTripsMembersLoginFeedback
No Recent News for this Train
Other Trains in the News **new
Latest...
⇐ Return Journey: Train# 58118

58117/Jharsuguda-Gondia Passenger (UnReserved)

Aug 04 2013 (9:25PM)
Change Departure Station:
Change Arrival Station:
Post a Train Travel TipPost a Train Travel Tip **new
Post a Comment/Question/Picture/VideoPost a Comment/Question/Picture/Video
Pantry/Catering
???
RSA - Rake Sharing
Rake/Coach Composition
Loco
News    PNR    Forum    Time-Table    Availability    Fare Chart    Map    Arr/Dep History    Trips    Gallery    ΣChains    X/O    Timeline    
Travel Time: 4h 13m    22 halts    Distance: 190 km    Avg Speed: 45 km/hr
Type: Passenger
Zone: SER/South Eastern
Departs @ 07:15 (Avg on time)
Platform# ???
SMTWTFS
Jharsuguda Junction/JSG 
Arrives @ 11:28 (Avg 34m late)
Platform# ???
SMTWTFS
Jairamnagar/JRMG 

22 halts. 23 intermediate Stations between Jharsuguda Junction and Jairamnagar

Show ALL intermediate Stations  Show Old Time-Table

#CodeStation NameX/OArrivesAvgDepartsAvgHaltPFDay#KmSpeedElevZoneAddress
1JSG»Jharsuguda Junction (5)»  -07:15+0--10.0108236mSERJharsuguda, Odisha
2IBIbX  07:20+907:21+101m--19.080207mSECRJharsuguda, Odisha
3BRJNBrajrajnagar  07:23+1307:25+152m--111.789212mSECRBrajrajnagar, Odisha
4BPHBelpahar  07:31+2107:32+241m--120.667235mSECRBelpahar, Odisha
5HGRHimgir  07:44+2307:45+251m--134.056275mSECRNational Highway 200, Chhattisgarh
6DAODaghora  07:53+2507:54+261m--141.465269mSECRRaigarh, Chhattisgarh
7JMGJamga  08:05+2508:06+271m--153.464233mSECRJamga Station, Chhattisgarh
8KRLKotarlia  08:14+2708:15+301m--161.939229mSECRRaigarh, Chhattisgarh
9RIGRaigarh (3)O  08:30+2409:00+1130m--171.772220mSECRRaigarh, Chhattisgarh
10KDTRKirodimalnagar  09:06+1409:07+161m--178.861240mSECRRaigarh, Chhattisgarh
11BEFBhupdeopurX  09:16+1809:17+211m--188.160243mSECRRaigarh, Chhattisgarh
12ROBRobertsonXO  09:26+2209:27+241m--197.164239mSECRRaigarh, Chhattisgarh
13KHSKharsia  09:35+2409:36+251m--1105.652259mSECRNational Highway 200, Chhattisgarh
14JDIJharradihX  09:42+2709:44+292m--1110.868247mSECRRaigarh, Chhattisgarh
15SKTSakti (4)X  09:53+3009:54+351m--1121.036237mSECRJanjgir-Champa, Chhattisgarh
16JDDAJetha  10:07+2910:08+301m--1128.871244mSECRNational Highway 200, Chhattisgarh
17BUABaradwarX  10:14+3210:15+331m--1135.956256mSECRJanjgir-Champa, Chhattisgarh
18SGRDSaragaon RoadX  10:22+2910:23+301m--1142.436254mSECRNational Highway 200, Chhattisgarh
19CPHChampa Junction (3)X  10:38+2810:43+285m--1151.472264mSECRNational Highway 200 (07819-245767), Chhattisgarh
20NIANailaX  10:52+3210:53+341m--1162.248273mSECRJanjgir, Chhattisgarh
21KPNAKapan (1)X  11:02+3411:03+351m11169.551263mSECRNational Highway 200, Chhattisgarh
22AKTAkaltara (4)  11:12+3311:13+341m--1177.255284mSECRDist. Janjgir Champa, Chhattisgarh
23KTSHKotmi Sonar HaltX  11:20+3211:21+331m--1183.657266mSECRKotmisunar, Chhattisgarh
24JRMG•Jairamnagar•  11:28+3411:29+351m--1190.335272mSECRNational Highway 200, Chhattisgarh
25GTWGatora  11:42+3111:43+321m--1197.98268mSECRBilaspur, Chhattisgarh
26BSPBilaspur Junction (8)X  12:30+613:00+930m--1204.433271mSECRBilaspur, Chhattisgarh
27DPHDadhapara  13:12+913:13+101m--1211.146272mSECRBilaspur, Chhattisgarh
28CHBTChakarbhathaX  13:17+1113:18+121m--1214.158285mSECRBilaspur, Chhattisgarh
29BYLBelhaX  13:24+1013:25+121m--1219.966269mSECRCollege Road, Chhattisgarh
30DGSDagoriX  13:32+1213:33+141m--1227.655254mSECRCollege Road, Chhattisgarh
31NPINipaniaX  13:42+1513:43+161m--1235.980259mSECRNational Highway 200, Chhattisgarh
32BYTBhatapara (4)X  13:54+1813:55+201m--1250.677270mSECRBanjari Road, Chhattisgarh
33HNHathbandh  14:07+2514:08+271m--1265.946283mSECRRaipur, Chhattisgarh
34TLDTilda (3)  14:22+2214:23+241m--1276.661291mSECRBanjari Rd, Chhattisgarh
35BKTHBaikunthXO  14:29+2314:30+231m--1282.836287mSECRBanjari Rd, Chhattisgarh
36SLHSiliariX  14:44+2114:45+281m--1291.141280mSECRBanjari Rd, Chhattisgarh
37MDHMandharX  14:59+2215:00+331m--1300.757281mSECRDonde Kalan, Chhattisgarh
38URKUrkura  15:09+2715:10+391m--1309.226275mSECRRaipur, Chhattisgarh
39WRCWRS Colony PHXO  15:17+1215:18+301m--1312.25286mSECRRaipur, Chhattisgarh
40RRaipur Junction (6)XO  15:50+1116:30+940m--1314.827297mSECRRaipur, Chhattisgarh
41SRWNSaraswatinagarX  16:35+1216:36+131m--1317.140291mSECRRaipur, Chhattisgarh
42SZBSarona Cabin (2)X  16:42+1216:43+121m--1321.162282mSECRRaipur, Chhattisgarh
43KMIKumhariX  16:49+1216:50+121m--1327.245287mSECRKumhari, Chhattisgarh
44DBECDevbaloda Charoda  17:00-17:01-1m--1334.835310mSECRBhilai, Chhattisgarh
45BIABhilaiX  17:07+1217:08+131m--1338.246309mSECRBhilai, Chhattisgarh
46BPHBBhilai Power House (3)X  17:14+1117:15+121m--1342.830312mSECRBhilai, Chhattisgarh
47BQRBhilai Nagar (2)  17:24+817:25+81m--1347.314298mSECRBhilai, Chhattisgarh
48DURGDurg Junction (6)X  17:45+217:50+35m--1351.880299mSECRPh: 91-788-2322059, Chhattisgarh
49RSMRasmaraX  17:56+1017:57+111m--1359.875292mSECRRasmada, Chhattisgarh
50MUPMurhipar  18:03+1118:04+121m--1367.360319mSECRRajnandgaon, Chhattisgarh
51PMSParmalkasaX  18:11+1118:12+111m--1374.359300mSECRRajnandgaon, Chhattisgarh
52RJNRaj Nandgaon (3)  18:20+1218:22+162m--1382.290313mSECRRajnandgaon, Chhattisgarh
53BAKLBakal  18:29+2018:30+211m--1392.867315mSECRRajnandgaon, Chhattisgarh
54MUAMusraXO  18:37+2018:38+211m--1400.666325mSECRRajnandgaon, Chhattisgarh
55JTRJatkanhar  18:44+2218:45+231m--1407.239330mSECRRajnandgaon, Chhattisgarh
56DGGDongargarh (2)X  18:55+2119:05+2110m--1413.866353mSECRDongargarh, Chhattisgarh
57PJBPaniajob (2)  19:12+2219:13+251m--1421.553398mSECRRajnandgaon, Chhattisgarh
58BTLBortalao (2)  19:23+2519:24+251m--1430.366409mSECRRajnandgaon, Chhattisgarh
59DKSDarekasa (2)X  19:31+2519:32+261m--1438.053381mSECRRajnandgaon, Chhattisgarh
60SKSSalekasa (2)  19:45+2619:46+271m--1449.556312mSECRRajnandgaon, Chhattisgarh
61DNLDhanoli (2)  19:54+2619:55+261m--1457.072310mSECRAmgaon, Maharashtra
62AGNAmgaon (2)X  20:01+2520:02+261m--1464.244317mSECRGondia, Maharashtra
63GDMGudma (2)  20:17+720:18+71m--1475.112323mSECRGondia, Maharashtra
64GGondia Junction (7)  21:20+2-21487.0-316mSECRGondia 441601, Maharashtra
Scroll to Top
Scroll to Bottom